Cypress Mill, Texas
Current Conditions -  °F | °C
As of 2:35 PM on Sunday 21 Dec 2014 (Local Time) from KDZB Reporting Station
Overcast Overcast  
Wind Chill: 56°   Ceiling: 1900
Heat Index: 56°   Visibility: 10mi
Dew Point: 48°   Wind: 8mph
Humidity: 73%   Direction: 200°SSW
Pressure: 29.91"   Gusts: NA
Location:  30.3215°N, 98.3242°W
Report Text: KDZB 212035Z AUTO 20007KT 10SM OVC019 14/09 A2991 RMK AO2 T01350087
Loading
Personal Weather Stations






























Interactive Weather Map New forecast layout! Learn more

10-Day Weather Forecast

Advertisements
Track Severe Weather on mobile